createdAt,value
2022-08-12T00:04:01.040Z,13.71
2022-08-12T00:09:26.213Z,13.75
2022-08-12T00:14:47.370Z,13.55
2022-08-12T00:20:08.086Z,13.43
2022-08-12T00:25:55.737Z,13.07
2022-08-12T00:31:11.411Z,12.73
2022-08-12T00:36:35.780Z,12.80
2022-08-12T00:41:58.725Z,12.54
2022-08-12T00:47:02.185Z,12.68
2022-08-12T00:52:06.589Z,12.65
2022-08-12T00:57:11.001Z,12.89
2022-08-12T01:02:22.722Z,13.27
2022-08-12T01:07:46.063Z,13.46
2022-08-12T01:12:50.048Z,13.77
2022-08-12T01:17:52.413Z,13.77
2022-08-12T01:23:15.613Z,13.77
2022-08-12T01:28:20.314Z,13.46
2022-08-12T01:33:25.467Z,13.73
2022-08-12T01:38:33.475Z,13.17
2022-08-12T01:43:36.959Z,13.25
2022-08-12T01:48:58.014Z,13.07
2022-08-12T01:54:07.222Z,13.09
2022-08-12T01:59:31.892Z,12.92
2022-08-12T02:05:14.987Z,13.36
2022-08-12T02:11:13.668Z,12.62
2022-08-12T02:16:45.663Z,12.99
2022-08-12T02:22:17.586Z,12.72
2022-08-12T02:27:22.270Z,13.04
2022-08-12T02:32:24.736Z,13.19
2022-08-12T02:37:30.224Z,13.18
2022-08-12T02:42:34.821Z,13.14
2022-08-12T02:47:59.603Z,13.17
2022-08-12T02:53:05.222Z,13.02
2022-08-12T02:58:12.373Z,12.95
2022-08-12T03:03:22.028Z,13.26
2022-08-12T03:08:33.027Z,13.36
2022-08-12T03:13:40.432Z,13.35
2022-08-12T03:18:46.056Z,13.27
2022-08-12T03:23:48.915Z,12.89
2022-08-12T03:28:52.015Z,13.32
2022-08-12T03:34:01.697Z,13.34
2022-08-12T03:39:41.664Z,13.51
2022-08-12T03:45:15.329Z,13.27
2022-08-12T03:50:36.902Z,13.14
2022-08-12T03:55:58.742Z,12.64
2022-08-12T04:01:01.638Z,12.68
2022-08-12T04:06:04.049Z,12.22
2022-08-12T04:11:28.015Z,12.47
2022-08-12T04:16:33.148Z,12.52
2022-08-12T04:21:36.438Z,12.69
2022-08-12T04:26:44.800Z,13.26
2022-08-12T04:31:49.637Z,12.95
2022-08-12T04:37:06.320Z,13.06
2022-08-12T04:42:08.728Z,13.05
2022-08-12T04:47:24.360Z,13.23
2022-08-12T04:52:28.071Z,13.67
2022-08-12T04:57:33.152Z,13.89
2022-08-12T05:02:35.473Z,14.11
2022-08-12T05:07:54.035Z,14.28
2022-08-12T05:13:02.716Z,14.26
2022-08-12T05:18:19.261Z,15.36
2022-08-12T05:23:22.796Z,16.35
2022-08-12T05:28:27.456Z,17.35
2022-08-12T05:33:43.658Z,18.59
2022-08-12T05:38:56.597Z,19.59
2022-08-12T05:44:01.705Z,20.23
2022-08-12T05:49:35.017Z,21.00
2022-08-12T05:54:57.005Z,21.84
2022-08-12T06:00:00.034Z,22.23
2022-08-12T06:05:14.230Z,23.02
2022-08-12T06:10:18.075Z,24.76
2022-08-12T06:15:40.111Z,29.22
2022-08-12T06:20:42.355Z,32.31
2022-08-12T06:25:44.537Z,34.53
2022-08-12T06:31:02.615Z,34.78
2022-08-12T06:36:09.776Z,36.56
2022-08-12T06:41:31.249Z,37.32
2022-08-12T06:46:37.091Z,37.23
2022-08-12T06:51:39.694Z,38.65
2022-08-12T07:02:04.405Z,37.80
2022-08-12T07:07:10.630Z,36.85
2022-08-12T07:12:20.110Z,37.34
2022-08-12T07:17:22.266Z,36.08
2022-08-12T07:22:24.357Z,33.52
2022-08-12T07:27:27.509Z,33.75
2022-08-12T07:32:29.757Z,33.26
2022-08-12T07:37:31.995Z,33.84
2022-08-12T07:42:35.808Z,33.82
2022-08-12T07:47:41.557Z,32.73
2022-08-12T07:52:47.268Z,32.86
2022-08-12T07:57:58.072Z,32.56
2022-08-12T08:03:01.425Z,32.14
2022-08-12T08:08:13.994Z,32.89
2022-08-12T08:13:16.771Z,32.70
2022-08-12T08:18:26.362Z,33.05
2022-08-12T08:23:56.200Z,33.07
2022-08-12T08:29:01.255Z,32.90
2022-08-12T08:34:47.177Z,32.93
2022-08-12T08:39:28.099Z,32.93
2022-08-12T08:44:30.489Z,33.15
2022-08-12T08:49:51.334Z,33.12
2022-08-12T08:54:53.819Z,33.12
2022-08-12T08:59:56.227Z,33.62
2022-08-12T09:05:12.373Z,33.51
2022-08-12T09:10:30.558Z,32.33
2022-08-12T09:15:36.379Z,31.84
2022-08-12T09:20:42.419Z,32.75
2022-08-12T09:25:48.500Z,32.89
2022-08-12T09:30:51.461Z,31.44
2022-08-12T09:36:03.079Z,31.20
2022-08-12T09:42:33.966Z,32.33
2022-08-12T09:46:29.693Z,31.80
2022-08-12T09:51:37.646Z,32.68
2022-08-12T09:56:58.036Z,32.74
2022-08-12T10:02:42.913Z,33.27
2022-08-12T10:07:28.715Z,33.65
2022-08-12T10:13:07.205Z,32.70
2022-08-12T10:18:14.685Z,32.50
2022-08-12T10:23:17.610Z,33.44
2022-08-12T10:28:38.893Z,33.95
2022-08-12T10:33:54.811Z,33.44
2022-08-12T10:39:00.676Z,33.26
2022-08-12T10:44:05.410Z,33.14
2022-08-12T10:50:02.724Z,33.62
2022-08-12T10:54:36.182Z,31.03
2022-08-12T11:00:29.263Z,32.17
2022-08-12T11:07:01.976Z,32.75
2022-08-12T11:10:24.484Z,33.12
2022-08-12T11:15:33.206Z,34.08
2022-08-12T11:20:58.109Z,33.76
2022-08-12T11:26:07.653Z,33.71
2022-08-12T11:31:14.089Z,33.96
2022-08-12T11:36:17.539Z,34.54
2022-08-12T11:41:28.048Z,35.54
2022-08-12T11:46:37.423Z,35.43
2022-08-12T11:51:57.503Z,35.32
2022-08-12T11:57:02.095Z,35.59
2022-08-12T12:02:05.867Z,34.76
2022-08-12T12:07:11.528Z,35.31
2022-08-12T12:12:15.048Z,34.31
2022-08-12T12:17:17.806Z,32.37
2022-08-12T12:22:23.589Z,31.01
2022-08-12T12:27:37.358Z,30.86
2022-08-12T12:32:53.120Z,30.75
2022-08-12T12:38:05.311Z,30.76
2022-08-12T12:43:15.705Z,30.85
2022-08-12T12:48:19.436Z,31.02
2022-08-12T12:54:06.541Z,30.96
2022-08-12T12:58:50.022Z,31.27
2022-08-12T13:03:55.532Z,30.94
2022-08-12T13:09:02.789Z,30.88
2022-08-12T13:14:12.265Z,30.79
2022-08-12T13:19:16.614Z,30.39
2022-08-12T13:24:27.793Z,30.06
2022-08-12T13:29:34.125Z,29.46
2022-08-12T13:34:37.140Z,28.75
2022-08-12T13:39:39.542Z,28.97
2022-08-12T13:44:42.521Z,29.28
2022-08-12T13:49:54.467Z,29.46
2022-08-12T13:54:58.427Z,29.62
2022-08-12T14:00:01.853Z,29.75
2022-08-12T14:05:38.241Z,29.77
2022-08-12T14:10:50.903Z,29.78
2022-08-12T14:15:55.710Z,29.02
2022-08-12T14:21:05.287Z,29.01
2022-08-12T14:26:11.892Z,29.43
2022-08-12T14:31:18.443Z,29.40
2022-08-12T14:36:23.275Z,29.24
2022-08-12T14:41:37.193Z,29.50
2022-08-12T14:46:57.940Z,29.40
2022-08-12T14:52:57.764Z,29.21
2022-08-12T14:57:24.617Z,29.07
2022-08-12T15:02:38.397Z,28.49
2022-08-12T15:07:49.477Z,28.22
2022-08-12T15:12:54.878Z,28.37
2022-08-12T15:18:02.984Z,28.34
2022-08-12T15:23:17.788Z,28.45
2022-08-12T15:28:27.596Z,28.23
2022-08-12T15:33:44.697Z,28.23
2022-08-12T15:38:47.958Z,28.28
2022-08-12T15:44:17.161Z,28.20
2022-08-12T15:49:16.683Z,28.15
2022-08-12T15:54:32.245Z,27.69
2022-08-12T16:00:04.075Z,27.59
2022-08-12T16:05:01.241Z,27.43
2022-08-12T16:10:05.537Z,27.40
2022-08-12T16:15:13.900Z,27.20
2022-08-12T16:20:33.002Z,27.21
2022-08-12T16:26:03.049Z,27.26
2022-08-12T16:31:02.918Z,27.20
2022-08-12T16:36:18.704Z,27.17
2022-08-12T16:41:23.161Z,26.86
2022-08-12T16:46:33.514Z,26.49
2022-08-12T16:51:40.596Z,26.04
2022-08-12T16:56:55.192Z,25.69
2022-08-12T17:02:02.724Z,25.12
2022-08-12T17:07:13.878Z,24.88
2022-08-12T17:12:18.113Z,24.38
2022-08-12T17:17:26.308Z,24.03
2022-08-12T17:22:42.146Z,23.47
2022-08-12T17:27:46.890Z,23.06
2022-08-12T17:33:02.977Z,22.68
2022-08-12T17:38:12.117Z,22.35
2022-08-12T17:43:54.659Z,21.85
2022-08-12T17:48:54.962Z,21.28
2022-08-12T17:54:11.527Z,20.82
2022-08-12T17:59:47.251Z,20.48
2022-08-12T18:05:04.948Z,20.86
2022-08-12T18:10:09.161Z,20.70
2022-08-12T18:15:26.713Z,20.54
2022-08-12T18:20:44.201Z,20.40
2022-08-12T18:26:13.862Z,20.27
2022-08-12T18:31:44.630Z,20.15
2022-08-12T18:36:55.795Z,19.69
2022-08-12T18:41:59.743Z,19.37
2022-08-12T18:47:05.809Z,19.11
2022-08-12T18:52:12.191Z,19.55
2022-08-12T18:57:19.848Z,19.84
2022-08-12T19:02:40.580Z,19.58
2022-08-12T19:08:00.347Z,19.72
2022-08-12T19:13:25.140Z,19.36
2022-08-12T19:18:39.823Z,19.06
2022-08-12T19:23:42.985Z,18.69
2022-08-12T19:28:47.979Z,18.30
2022-08-12T19:34:21.652Z,18.20
2022-08-12T19:39:15.354Z,18.39
2022-08-12T19:44:38.211Z,18.29
2022-08-12T19:49:55.157Z,17.96
2022-08-12T19:54:57.736Z,18.03
2022-08-12T20:00:07.749Z,17.95
2022-08-12T20:06:07.186Z,18.12
2022-08-12T20:10:36.136Z,17.95
2022-08-12T20:15:44.297Z,17.83
2022-08-12T20:20:47.897Z,17.86
2022-08-12T20:25:52.178Z,17.63
2022-08-12T20:31:00.829Z,17.44
2022-08-12T20:36:14.019Z,17.15
2022-08-12T20:41:26.643Z,16.90
2022-08-12T20:46:32.449Z,16.79
2022-08-12T20:51:54.600Z,17.28
2022-08-12T20:56:58.411Z,17.10
2022-08-12T21:02:05.800Z,16.63
2022-08-12T21:07:11.364Z,16.69
2022-08-12T21:12:31.507Z,16.90
2022-08-12T21:18:09.769Z,17.21
2022-08-12T21:23:12.774Z,17.37
2022-08-12T21:28:15.313Z,17.24
2022-08-12T21:33:18.501Z,16.99
2022-08-12T21:38:21.806Z,17.06
2022-08-12T21:43:28.824Z,16.38
2022-08-12T21:48:49.767Z,16.02
2022-08-12T21:54:06.968Z,15.65
2022-08-12T21:59:14.512Z,15.72
2022-08-12T22:04:36.398Z,15.92
2022-08-12T22:09:43.068Z,15.75
2022-08-12T22:14:46.560Z,15.91
2022-08-12T22:19:49.895Z,15.73
2022-08-12T22:24:53.028Z,15.63
2022-08-12T22:30:19.755Z,15.54
2022-08-12T22:35:56.639Z,15.35
2022-08-12T22:41:01.634Z,15.54
2022-08-12T22:46:26.675Z,15.55
2022-08-12T22:52:03.002Z,15.65
2022-08-12T22:56:56.444Z,15.86
2022-08-12T23:02:01.690Z,15.53
2022-08-12T23:07:05.212Z,15.39
2022-08-12T23:12:08.152Z,15.37
2022-08-12T23:17:40.041Z,15.37
2022-08-12T23:23:02.728Z,15.61
2022-08-12T23:28:29.964Z,15.58
2022-08-12T23:34:00.555Z,15.74
2022-08-12T23:39:01.713Z,15.82
2022-08-12T23:44:06.907Z,15.72
2022-08-12T23:49:55.504Z,15.61
2022-08-12T23:54:38.755Z,15.63
2022-08-12T23:59:43.466Z,15.49
